Time;durP1;ratioP1;P1;durP2;ratioP2;P2;SDS_P1;SDS_P2;PMS_P1;PMS_P2;Temp;Humidity;BMP_temperature;BMP_pressure;BME280_temperature;BME280_humidity;BME280_pressure;Samples;Min_cycle;Max_cycle;Signal;HPM_P1;HPM_P2
2023/02/01 00:04:58;;;;;;;4.80;3.00;;;;;;;1.74;88.22;98207.80;221509;1278;24334;-74
2023/02/01 00:10:04;;;;;;;3.70;3.00;;;;;;;1.64;88.55;98199.21;221492;1277;23759;-75
2023/02/01 00:15:11;;;;;;;4.50;2.80;;;;;;;1.56;88.20;98180.00;221450;1278;22561;-74
2023/02/01 00:20:13;;;;;;;4.40;3.10;;;;;;;1.49;88.20;98178.83;221551;1277;25337;-74
2023/02/01 00:25:15;;;;;;;5.40;2.90;;;;;;;1.44;88.49;98183.25;221509;1280;25265;-75
2023/02/01 00:30:17;;;;;;;4.60;3.20;;;;;;;1.45;88.52;98183.55;221362;1280;22695;-73
2023/02/01 00:35:20;;;;;;;5.20;3.30;;;;;;;1.50;88.55;98176.41;221545;1280;25916;-76
2023/02/01 00:40:22;;;;;;;4.60;2.70;;;;;;;1.59;88.64;98178.87;221521;1280;23193;-75
2023/02/01 00:45:25;;;;;;;3.90;2.70;;;;;;;1.71;88.30;98191.45;221472;1276;22534;-75
2023/02/01 00:50:27;;;;;;;3.10;2.30;;;;;;;1.88;88.66;98189.59;221549;1280;25245;-75
2023/02/01 00:55:29;;;;;;;2.00;1.50;;;;;;;2.05;88.46;98220.59;221412;1280;23064;-75
2023/02/01 01:00:31;;;;;;;1.90;1.20;;;;;;;2.20;88.18;98274.60;221409;1266;23944;-75
2023/02/01 01:05:36;;;;;;;1.20;0.90;;;;;;;2.03;87.34;98292.63;221524;1269;22632;-76
2023/02/01 01:10:38;;;;;;;0.90;0.40;;;;;;;1.62;87.78;98294.19;221153;1273;22684;-75
2023/02/01 01:15:41;;;;;;;0.60;0.40;;;;;;;1.34;88.97;98313.24;221172;1280;25376;-76
2023/02/01 01:20:44;;;;;;;0.20;0.20;;;;;;;1.15;90.31;98302.39;221642;1279;23366;-76
2023/02/01 01:25:46;;;;;;;2.00;0.40;;;;;;;0.93;90.22;98326.61;221478;1280;23927;-78
2023/02/01 01:30:48;;;;;;;0.40;0.20;;;;;;;0.76;90.71;98330.34;221318;1278;22574;-78
2023/02/01 01:35:51;;;;;;;0.10;0.10;;;;;;;0.65;91.30;98327.32;221362;1280;22642;-79
2023/02/01 01:40:53;;;;;;;1.00;0.30;;;;;;;0.57;91.52;98330.16;221389;1278;24197;-79
2023/02/01 01:45:57;;;;;;;1.30;0.40;;;;;;;0.52;91.44;98324.95;221487;1281;25356;-77
2023/02/01 01:51:06;;;;;;;0.60;0.20;;;;;;;0.46;91.33;98324.57;221572;1280;22586;-77
2023/02/01 01:56:08;;;;;;;14.60;8.80;;;;;;;0.42;91.51;98313.84;221838;1277;24306;-77
2023/02/01 02:01:13;;;;;;;1.00;0.40;;;;;;;0.40;91.61;98284.22;221485;1280;22543;-79
2023/02/01 02:06:28;;;;;;;1.20;0.40;;;;;;;0.39;91.47;98277.21;221294;1279;22819;-77
2023/02/01 02:11:30;;;;;;;1.60;0.50;;;;;;;0.40;91.55;98282.36;221249;1280;25173;-78
2023/02/01 02:16:55;;;;;;;3.20;0.70;;;;;;;0.43;91.66;98281.05;221225;1261;22587;-77
2023/02/01 02:22:25;;;;;;;1.40;0.60;;;;;;;0.43;91.83;98282.05;221528;1279;23467;-77
2023/02/01 02:27:32;;;;;;;1.50;0.40;;;;;;;0.42;91.81;98284.41;221484;1280;25522;-78
2023/02/01 02:33:10;;;;;;;2.70;0.60;;;;;;;0.41;91.75;98286.60;221519;1273;22546;-79
2023/02/01 02:38:21;;;;;;;2.70;1.30;;;;;;;0.41;92.04;98301.10;221228;1265;136814;-79
2023/02/01 02:49:33;;;;;;;3.20;2.10;;;;;;;0.42;91.31;98284.24;221587;1280;22537;-77
2023/02/01 02:54:46;;;;;;;1.50;1.20;;;;;;;0.43;91.26;98281.57;221497;1280;22543;-78
2023/02/01 03:05:12;;;;;;;1.40;1.20;;;;;;;0.50;91.52;98283.01;221646;1277;22680;-78
2023/02/01 03:10:37;;;;;;;1.60;0.80;;;;;;;0.55;91.73;98290.86;221583;1267;25528;-77
2023/02/01 03:15:47;;;;;;;0.90;0.80;;;;;;;0.61;91.33;98288.89;221561;1273;22538;-77
2023/02/01 03:20:54;;;;;;;2.00;1.20;;;;;;;0.66;91.71;98290.06;221462;1276;25136;-78
2023/02/01 03:25:59;;;;;;;1.90;1.10;;;;;;;0.69;91.29;98287.14;221684;1279;23779;-78
2023/02/01 03:31:03;;;;;;;2.70;1.20;;;;;;;0.70;91.68;98308.86;221373;1266;22620;-77
2023/02/01 03:36:22;;;;;;;1.10;1.00;;;;;;;0.73;91.57;98301.23;221481;1279;23884;-78
2023/02/01 03:41:35;;;;;;;3.00;2.20;;;;;;;0.75;91.30;98321.44;222093;1269;24263;-77
2023/02/01 03:47:22;;;;;;;5.00;2.70;;;;;;;0.77;91.37;98328.20;222391;1273;22550;-78
2023/02/01 03:52:36;;;;;;;7.00;5.40;;;;;;;0.78;91.61;98320.45;220240;1264;22548;-79
2023/02/01 03:57:45;;;;;;;9.50;6.80;;;;;;;0.77;91.19;98312.95;220910;1280;22534;-78
2023/02/01 04:02:48;;;;;;;9.70;6.60;;;;;;;0.74;91.18;98302.32;221394;1279;24295;-77
2023/02/01 04:07:51;;;;;;;8.40;5.00;;;;;;;0.68;90.94;98301.48;221505;1277;22647;-77
2023/02/01 04:12:53;;;;;;;5.10;2.70;;;;;;;0.61;91.01;98298.23;221453;1275;22651;-77
2023/02/01 04:17:55;;;;;;;1.90;1.50;;;;;;;0.59;91.33;98300.91;221151;1280;22544;-78
2023/02/01 04:22:58;;;;;;;2.20;1.70;;;;;;;0.58;91.54;98300.09;221550;1272;23310;-77
2023/02/01 04:28:00;;;;;;;3.80;2.00;;;;;;;0.60;91.45;98287.79;221533;1280;22666;-78
2023/02/01 04:33:06;;;;;;;2.70;1.70;;;;;;;0.60;91.29;98285.13;221307;1277;24486;-77
2023/02/01 04:38:08;;;;;;;5.30;2.30;;;;;;;0.61;91.41;98282.84;221420;1276;23021;-77
2023/02/01 04:43:10;;;;;;;4.80;3.00;;;;;;;0.59;91.00;98282.71;221235;1265;22534;-77
2023/02/01 04:48:12;;;;;;;5.60;2.90;;;;;;;0.54;91.29;98285.42;221528;1274;24836;-78
2023/02/01 04:53:15;;;;;;;6.90;3.00;;;;;;;0.51;91.50;98287.27;221600;1274;22592;-78
2023/02/01 04:58:17;;;;;;;7.90;3.90;;;;;;;0.52;91.33;98287.36;221408;1280;24415;-77
2023/02/01 05:03:19;;;;;;;10.50;4.90;;;;;;;0.54;91.24;98284.73;221561;1275;22669;-77
2023/02/01 05:08:25;;;;;;;6.60;3.10;;;;;;;0.58;91.18;98283.68;221681;1276;22733;-77
2023/02/01 05:18:48;;;;;;;6.90;3.10;;;;;;;0.64;91.04;98284.28;221546;1278;22536;-77
2023/02/01 05:29:11;;;;;;;3.30;2.00;;;;;;;0.76;91.20;98286.33;221410;1274;25311;-76
2023/02/01 05:34:15;;;;;;;4.40;2.10;;;;;;;0.83;91.45;98276.02;221408;1280;22555;-77
2023/02/01 05:39:17;;;;;;;7.90;2.20;;;;;;;0.88;91.13;98273.33;221493;1278;23806;-76
2023/02/01 05:44:19;;;;;;;5.20;2.20;;;;;;;0.92;91.18;98269.30;221325;1276;24273;-76
2023/02/01 05:49:21;;;;;;;4.00;2.10;;;;;;;0.95;90.57;98259.66;221567;1279;24238;-76
2023/02/01 05:54:23;;;;;;;7.10;2.60;;;;;;;0.97;90.53;98256.02;221442;1280;25350;-76
2023/02/01 05:59:26;;;;;;;7.00;2.80;;;;;;;0.99;90.73;98256.88;221499;1280;22545;-79
2023/02/01 06:04:27;;;;;;;12.40;4.00;;;;;;;1.01;90.43;98263.80;221495;1276;25459;-76
2023/02/01 06:09:29;;;;;;;11.60;4.70;;;;;;;1.02;90.56;98271.33;221484;1276;25348;-77
2023/02/01 06:14:32;;;;;;;11.20;4.70;;;;;;;1.01;90.49;98276.39;221466;1257;22541;-77
2023/02/01 06:19:34;;;;;;;10.50;3.60;;;;;;;1.03;90.14;98276.88;221489;1278;25330;-78
2023/02/01 06:24:36;;;;;;;8.30;3.60;;;;;;;1.07;90.23;98278.45;221333;1280;22534;-78
2023/02/01 06:29:39;;;;;;;7.50;3.40;;;;;;;1.12;90.18;98281.70;221446;1278;22599;-75
2023/02/01 06:34:41;;;;;;;12.40;4.50;;;;;;;1.15;89.81;98283.48;221584;1277;22576;-76
2023/02/01 06:39:43;;;;;;;7.30;2.90;;;;;;;1.18;90.10;98274.84;221419;1276;22536;-77
2023/02/01 06:44:46;;;;;;;8.60;3.00;;;;;;;1.22;89.95;98270.13;221647;1266;22647;-76
2023/02/01 06:49:48;;;;;;;7.50;2.60;;;;;;;1.27;89.55;98261.07;221800;1272;22547;-78
2023/02/01 06:54:50;;;;;;;11.20;3.20;;;;;;;1.31;89.93;98253.33;221870;1273;24404;-78
2023/02/01 06:59:52;;;;;;;9.20;2.70;;;;;;;1.37;89.68;98257.31;221814;1264;22534;-77
2023/02/01 07:04:55;;;;;;;9.60;4.30;;;;;;;1.40;88.95;98256.66;222027;1265;24690;-78
2023/02/01 07:09:57;;;;;;;12.40;4.00;;;;;;;1.43;88.86;98253.45;222099;1272;140088;-78
2023/02/01 07:15:01;;;;;;;8.80;3.70;;;;;;;1.46;88.86;98252.48;222112;1264;137519;-79
2023/02/01 07:20:04;;;;;;;12.10;4.50;;;;;;;1.47;88.58;98258.32;222612;1268;22545;-79
2023/02/01 07:25:06;;;;;;;11.30;5.40;;;;;;;1.47;88.33;98255.88;222093;1260;138652;-77
2023/02/01 07:30:09;;;;;;;11.30;5.00;;;;;;;1.50;88.91;98261.27;221547;1262;138450;-77
2023/02/01 07:35:13;;;;;;;10.50;5.10;;;;;;;1.54;88.42;98266.13;222367;1258;138443;-77
2023/02/01 07:40:16;;;;;;;8.40;4.20;;;;;;;1.59;88.32;98266.53;221712;1265;138459;-79
2023/02/01 07:45:20;;;;;;;10.90;3.90;;;;;;;1.64;88.29;98266.68;221707;1260;138296;-77
2023/02/01 07:50:22;;;;;;;12.70;5.50;;;;;;;1.70;87.95;98266.69;221573;1261;138642;-79
2023/02/01 07:55:25;;;;;;;8.10;4.50;;;;;;;1.73;88.18;98262.52;221848;1269;22558;-76
2023/02/01 08:05:48;;;;;;;11.20;4.90;;;;;;;1.82;88.04;98266.56;221914;1272;138279;-76
2023/02/01 08:10:50;;;;;;;10.80;5.40;;;;;;;1.87;87.69;98258.13;221619;1278;139039;-78
2023/02/01 08:15:52;;;;;;;9.20;5.20;;;;;;;1.94;87.71;98263.35;221706;1265;138468;-76
2023/02/01 08:20:55;;;;;;;7.60;4.20;;;;;;;2.03;87.77;98264.07;221809;1270;138838;-75
2023/02/01 08:26:30;;;;;;;9.40;5.20;;;;;;;2.13;87.21;98266.00;221957;1261;22540;-75
2023/02/01 08:31:32;;;;;;;12.60;6.10;;;;;;;2.25;87.13;98272.50;221522;1273;22536;-76
2023/02/01 08:36:35;;;;;;;11.10;6.10;;;;;;;2.28;86.73;98271.48;221673;1272;138263;-76
2023/02/01 08:41:38;;;;;;;11.80;5.70;;;;;;;2.28;86.77;98273.60;221655;1272;139382;-76
2023/02/01 08:46:41;;;;;;;12.70;6.60;;;;;;;2.27;86.46;98262.41;221588;1275;138649;-77
2023/02/01 08:51:44;;;;;;;11.50;6.00;;;;;;;2.30;86.50;98260.89;221878;1272;137983;-76
2023/02/01 08:56:46;;;;;;;12.80;6.10;;;;;;;2.38;86.39;98258.41;222081;1266;138522;-77
2023/02/01 09:01:48;;;;;;;10.70;5.80;;;;;;;2.46;86.57;98258.08;222095;1261;22895;-77
2023/02/01 09:07:24;;;;;;;;;;;;;;;;;;;;;
2023/02/01 09:13:57;;;;;;;12.90;6.80;;;;;;;2.58;85.88;98254.29;220936;1270;22633;-77
2023/02/01 09:18:59;;;;;;;16.50;7.30;;;;;;;2.67;85.91;98253.78;221069;1274;138355;-79
2023/02/01 09:24:21;;;;;;;14.70;8.00;;;;;;;2.77;85.68;98250.20;221159;1274;139479;-79
2023/02/01 09:29:23;;;;;;;19.30;8.60;;;;;;;2.82;85.49;98241.37;220958;1274;138537;-78
2023/02/01 09:34:26;;;;;;;16.00;7.60;;;;;;;2.89;84.85;98239.20;221079;1271;138998;-79
2023/02/01 09:39:29;;;;;;;16.40;7.30;;;;;;;2.97;85.04;98233.42;220760;1277;138701;-77
2023/02/01 09:45:08;;;;;;;12.10;6.70;;;;;;;3.09;84.74;98234.81;221053;1274;138651;-81
2023/02/01 09:50:19;;;;;;;13.40;6.60;;;;;;;3.23;84.40;98226.75;221819;1276;22770;-77
2023/02/01 09:55:42;;;;;;;13.20;7.10;;;;;;;3.37;84.30;98222.55;221945;1272;139134;-79
2023/02/01 10:00:52;;;;;;;13.90;7.10;;;;;;;3.46;83.86;98218.59;221830;1279;138486;-78
2023/02/01 10:06:27;;;;;;;14.30;7.10;;;;;;;3.51;83.98;98217.26;221855;1259;138391;-77
2023/02/01 10:12:03;;;;;;;15.30;7.70;;;;;;;3.54;83.80;98213.81;221875;1272;139011;-77
2023/02/01 10:17:14;;;;;;;13.10;6.80;;;;;;;3.61;83.82;98211.86;221784;1272;138991;-78
2023/02/01 10:22:42;;;;;;;13.00;7.00;;;;;;;3.61;83.49;98207.23;221783;1269;139562;-78
2023/02/01 10:28:04;;;;;;;13.40;6.60;;;;;;;3.59;83.58;98204.77;221666;1275;138412;-79
2023/02/01 10:33:23;;;;;;;11.50;6.00;;;;;;;3.60;83.32;98202.39;221774;1272;138595;-78
2023/02/01 10:38:31;;;;;;;12.00;5.30;;;;;;;3.65;83.53;98202.29;222424;1259;138714;-78
2023/02/01 10:43:38;;;;;;;12.60;5.40;;;;;;;3.69;83.52;98199.73;221833;1261;22520;-77
2023/02/01 10:48:42;;;;;;;11.70;4.80;;;;;;;3.75;83.42;98198.55;222485;1275;138252;-78
2023/02/01 10:53:52;;;;;;;10.20;5.20;;;;;;;3.80;83.06;98194.69;221733;1271;138582;-78
2023/02/01 10:59:06;;;;;;;9.70;3.90;;;;;;;3.87;83.47;98186.01;221944;1272;138618;-79
2023/02/01 11:04:14;;;;;;;7.80;3.80;;;;;;;3.90;83.56;98188.11;222018;1270;138272;-78
2023/02/01 11:09:25;;;;;;;18.10;10.00;;;;;;;3.94;83.29;98187.73;222463;1258;138228;-78
2023/02/01 11:14:35;;;;;;;6.30;3.70;;;;;;;3.97;83.13;98187.73;221869;1265;138935;-78
2023/02/01 11:19:38;;;;;;;5.40;3.10;;;;;;;4.05;82.94;98181.00;222137;1275;22545;-78
2023/02/01 11:24:44;;;;;;;6.50;3.30;;;;;;;4.14;82.73;98171.30;221862;1275;138104;-78
2023/02/01 11:29:51;;;;;;;6.60;3.70;;;;;;;4.21;82.55;98161.52;221985;1275;138137;-77
2023/02/01 11:35:01;;;;;;;5.10;2.70;;;;;;;4.28;82.68;98153.83;221713;1270;138258;-78
2023/02/01 11:40:27;;;;;;;5.50;2.60;;;;;;;4.35;82.81;98148.36;222090;1274;138283;-77
2023/02/01 11:45:33;;;;;;;5.00;2.50;;;;;;;4.38;82.41;98141.65;221882;1276;138283;-78
2023/02/01 11:50:42;;;;;;;5.80;2.50;;;;;;;4.40;82.69;98139.16;221981;1276;138397;-78
2023/02/01 11:56:00;;;;;;;5.30;2.30;;;;;;;4.46;82.63;98124.84;221821;1275;22653;-78
2023/02/01 12:01:30;;;;;;;4.90;2.70;;;;;;;4.44;82.25;98121.14;221888;1272;138068;-79
2023/02/01 12:07:25;;;;;;;4.00;2.50;;;;;;;4.42;82.51;98112.20;221597;1278;138083;-79
2023/02/01 12:12:44;;;;;;;4.90;2.50;;;;;;;4.42;82.61;98108.34;221957;1268;138564;-78
2023/02/01 12:17:55;;;;;;;5.60;3.00;;;;;;;4.41;82.73;98105.11;221775;1277;138165;-80
2023/02/01 12:23:16;;;;;;;9.00;3.70;;;;;;;4.47;82.70;98099.91;221785;1256;139271;-79
2023/02/01 12:28:48;;;;;;;7.40;3.60;;;;;;;4.48;82.74;98098.94;221682;1270;138323;-79
2023/02/01 12:34:19;;;;;;;7.00;3.50;;;;;;;4.45;82.42;98094.86;221642;1277;138355;-78
2023/02/01 12:39:26;;;;;;;6.30;3.60;;;;;;;4.36;82.26;98086.30;221757;1274;138384;-79
2023/02/01 12:44:37;;;;;;;9.10;3.60;;;;;;;4.32;82.44;98078.08;221979;1275;138330;-78
2023/02/01 12:49:50;;;;;;;7.10;3.50;;;;;;;4.29;82.58;98066.55;221947;1275;22536;-78
2023/02/01 12:55:03;;;;;;;5.70;3.10;;;;;;;4.21;82.46;98053.19;221765;1268;139038;-78
2023/02/01 13:00:32;;;;;;;6.90;3.60;;;;;;;4.12;82.69;98047.10;221793;1276;138536;-79
2023/02/01 13:05:52;;;;;;;;;;;;;;;4.09;82.95;98035.21;221879;1272;138601;-79
2023/02/01 13:11:04;;;;;;;7.60;3.50;;;;;;;4.09;82.99;98022.89;222131;1264;124705;-79
2023/02/01 13:16:35;;;;;;;4.20;3.20;;;;;;;4.12;82.94;98029.98;222043;1272;138272;-78
2023/02/01 13:21:43;;;;;;;6.80;3.90;;;;;;;4.17;82.96;98035.31;221717;1272;138407;-79
2023/02/01 13:26:47;;;;;;;6.60;3.00;;;;;;;4.13;82.57;98041.80;221969;1272;138292;-79
2023/02/01 13:32:16;;;;;;;3.30;2.00;;;;;;;3.96;82.47;98040.46;221870;1272;22966;-79
2023/02/01 13:38:36;;;;;;;2.60;1.70;;;;;;;3.63;82.68;98058.10;221899;1272;137760;-81
2023/02/01 13:43:49;;;;;;;3.30;2.10;;;;;;;3.07;83.44;98076.90;221373;1286;22898;-81
2023/02/01 13:49:02;;;;;;;5.10;2.00;;;;;;;2.62;83.82;98080.63;221193;1280;138264;-81
2023/02/01 13:54:05;;;;;;;5.00;2.60;;;;;;;2.32;84.40;98080.71;221891;1278;139631;-76
2023/02/01 13:59:59;;;;;;;7.60;3.90;;;;;;;2.12;84.84;98079.20;221976;1256;138525;-80
2023/02/01 14:05:42;;;;;;;6.70;4.20;;;;;;;2.02;85.44;98084.89;221863;1272;138235;-79
2023/02/01 14:11:01;;;;;;;9.80;5.30;;;;;;;1.94;85.78;98088.70;222032;1272;138865;-79
2023/02/01 14:16:15;;;;;;;10.40;5.50;;;;;;;1.83;85.66;98083.20;222086;1272;138492;-79
2023/02/01 14:21:45;;;;;;;13.80;6.80;;;;;;;1.74;85.84;98082.48;222323;1272;138513;-79
2023/02/01 14:26:59;;;;;;;13.90;6.10;;;;;;;1.75;86.45;98070.25;221965;1275;138412;-79
2023/02/01 14:32:25;;;;;;;10.30;5.30;;;;;;;1.77;87.50;98069.82;222111;1272;22576;-79
2023/02/01 14:37:36;;;;;;;9.10;5.90;;;;;;;1.89;87.59;98066.76;221896;1269;138079;-77
2023/02/01 14:42:47;;;;;;;7.40;4.80;;;;;;;1.97;87.71;98072.86;221945;1262;138299;-81
2023/02/01 14:48:13;;;;;;;5.20;3.80;;;;;;;2.04;87.74;98069.94;222829;1268;138437;-79
2023/02/01 14:53:33;;;;;;;10.40;6.10;;;;;;;2.13;88.20;98071.07;223008;1273;138443;-79
2023/02/01 14:59:09;;;;;;;9.00;5.80;;;;;;;2.20;88.62;98073.64;223432;1275;139691;-78
2023/02/01 15:04:21;;;;;;;7.80;5.10;;;;;;;2.28;88.61;98074.63;222064;1261;138476;-81
2023/02/01 15:09:37;;;;;;;5.90;4.20;;;;;;;2.36;88.52;98078.20;222563;1278;22670;-80
2023/02/01 15:14:52;;;;;;;5.40;3.40;;;;;;;2.43;88.45;98096.26;222355;1278;22892;-80
2023/02/01 15:19:57;;;;;;;4.60;2.80;;;;;;;2.50;88.65;98107.97;222257;1278;23037;-79
2023/02/01 15:25:00;;;;;;;3.50;2.60;;;;;;;2.55;88.70;98106.00;222256;1278;22646;-80
2023/02/01 15:30:18;;;;;;;4.00;2.90;;;;;;;2.57;88.89;98115.88;222341;1278;22655;-80
2023/02/01 15:36:28;;;;;;;3.80;3.00;;;;;;;2.53;88.90;98112.64;222495;1280;22539;-80
2023/02/01 15:41:43;;;;;;;5.00;3.20;;;;;;;2.43;89.07;98118.34;221808;1280;22567;-80
2023/02/01 15:46:50;;;;;;;7.00;4.20;;;;;;;2.36;89.14;98111.54;222153;1280;25627;-80
2023/02/01 15:51:56;;;;;;;5.30;3.70;;;;;;;2.34;89.40;98121.68;222165;1278;23294;-78
2023/02/01 15:57:03;;;;;;;6.00;4.30;;;;;;;2.33;89.24;98122.32;222117;1262;22577;-78
2023/02/01 16:02:30;;;;;;;9.70;5.20;;;;;;;2.34;89.26;98129.83;222300;1280;23798;-79
2023/02/01 16:08:03;;;;;;;8.90;5.20;;;;;;;2.37;89.33;98135.48;222192;1278;22548;-79
2023/02/01 16:13:07;;;;;;;6.50;4.30;;;;;;;2.40;89.71;98132.20;222396;1280;24288;-79
2023/02/01 16:18:11;;;;;;;6.00;3.70;;;;;;;2.43;89.15;98128.41;222245;1280;22530;-78
2023/02/01 16:23:15;;;;;;;7.20;3.90;;;;;;;2.45;89.27;98130.52;222112;1278;22543;-78
2023/02/01 16:28:18;;;;;;;8.50;4.50;;;;;;;2.45;89.41;98130.91;221338;1280;22574;-79
2023/02/01 16:33:30;;;;;;;6.80;4.40;;;;;;;2.45;89.00;98134.43;222258;1278;22529;-78
2023/02/01 16:38:32;;;;;;;9.20;4.80;;;;;;;2.44;89.03;98135.09;221069;1281;24251;-78
2023/02/01 16:43:38;;;;;;;6.20;3.60;;;;;;;2.39;88.94;98146.84;221050;1281;23772;-78
2023/02/01 16:48:50;;;;;;;4.60;2.60;;;;;;;2.32;88.53;98153.49;222129;1281;23342;-77
2023/02/01 16:53:53;;;;;;;5.40;2.60;;;;;;;2.24;88.97;98164.52;222054;1280;23898;-78
2023/02/01 16:58:57;;;;;;;7.00;3.20;;;;;;;2.21;88.44;98170.12;222122;1281;23870;-76
2023/02/01 17:04:00;;;;;;;7.00;3.90;;;;;;;2.14;88.50;98165.88;221231;1276;23764;-79
2023/02/01 17:09:04;;;;;;;4.30;2.80;;;;;;;2.05;88.60;98164.70;221225;1280;22621;-78
2023/02/01 17:14:21;;;;;;;7.20;4.40;;;;;;;1.93;88.40;98155.28;222190;1275;22893;-78
2023/02/01 17:19:24;;;;;;;7.80;4.30;;;;;;;1.83;88.66;98160.72;221184;1281;24357;-77
2023/02/01 17:24:30;;;;;;;7.10;4.60;;;;;;;1.82;88.84;98154.77;221091;1275;22543;-77
2023/02/01 17:29:53;;;;;;;7.10;4.20;;;;;;;1.83;88.65;98155.86;221882;1281;25398;-77
2023/02/01 17:35:00;;;;;;;9.60;5.40;;;;;;;1.88;89.00;98151.61;221904;1281;23253;-78
2023/02/01 17:40:02;;;;;;;10.90;6.60;;;;;;;1.94;88.82;98156.59;221209;1281;25421;-77
2023/02/01 17:45:39;;;;;;;18.80;10.30;;;;;;;1.99;88.72;98157.05;221244;1278;24269;-79
2023/02/01 17:50:46;;;;;;;17.10;8.70;;;;;;;2.04;88.58;98151.41;221129;1281;22543;-77
2023/02/01 17:55:50;;;;;;;13.70;7.20;;;;;;;2.06;88.69;98141.69;221386;1279;24286;-78
2023/02/01 18:00:53;;;;;;;11.40;6.60;;;;;;;2.08;88.52;98142.52;222089;1281;24234;-76
2023/02/01 18:06:00;;;;;;;10.50;5.80;;;;;;;2.09;88.18;98138.05;221214;1281;24416;-77
2023/02/01 18:11:09;;;;;;;10.90;5.30;;;;;;;2.10;88.15;98126.09;222271;1281;22583;-77
2023/02/01 18:16:32;;;;;;;10.20;5.00;;;;;;;2.12;88.25;98120.20;221222;1278;22892;-77
2023/02/01 18:21:41;;;;;;;11.00;6.10;;;;;;;2.12;88.23;98123.65;221400;1279;22981;-77
2023/02/01 18:26:47;;;;;;;12.70;6.30;;;;;;;2.12;88.02;98124.92;221283;1279;22669;-79
2023/02/01 18:31:50;;;;;;;10.50;6.70;;;;;;;2.11;88.13;98120.45;222168;1280;22563;-77
2023/02/01 18:36:55;;;;;;;13.10;7.30;;;;;;;2.11;87.84;98103.48;221258;1281;22638;-78
2023/02/01 18:41:58;;;;;;;11.70;6.50;;;;;;;2.10;87.86;98103.86;221955;1281;22594;-78
2023/02/01 18:47:04;;;;;;;12.40;6.00;;;;;;;2.12;87.69;98102.52;222162;1280;24251;-78
2023/02/01 18:52:15;;;;;;;10.60;6.70;;;;;;;2.13;87.87;98102.39;221487;1278;22547;-77
2023/02/01 18:57:18;;;;;;;16.00;8.20;;;;;;;2.14;87.93;98104.75;221204;1278;22598;-77
2023/02/01 19:02:21;;;;;;;12.60;7.80;;;;;;;2.14;87.62;98102.64;221187;1281;22558;-77
2023/02/01 19:07:23;;;;;;;16.40;9.40;;;;;;;2.13;87.49;98096.45;221196;1263;25977;-77
2023/02/01 19:12:26;;;;;;;15.80;10.20;;;;;;;2.12;87.45;98089.76;220830;1281;22647;-77
2023/02/01 19:17:29;;;;;;;17.80;10.60;;;;;;;2.12;87.49;98083.76;222182;1281;25811;-78
2023/02/01 19:22:32;;;;;;;21.50;11.10;;;;;;;2.12;87.30;98074.17;221939;1281;22600;-76
2023/02/01 19:27:35;;;;;;;18.30;9.80;;;;;;;2.12;87.52;98065.10;222109;1279;22561;-78
2023/02/01 19:32:38;;;;;;;20.30;10.20;;;;;;;2.12;87.69;98057.67;221324;1279;22535;-77
2023/02/01 19:37:42;;;;;;;16.90;9.20;;;;;;;2.13;87.33;98049.09;221364;1279;23212;-77
2023/02/01 19:42:45;;;;;;;17.10;9.60;;;;;;;2.12;87.63;98037.29;222074;1281;22542;-77
2023/02/01 19:47:48;;;;;;;18.10;9.70;;;;;;;2.12;87.72;98028.27;221474;1277;22752;-77
2023/02/01 19:52:51;;;;;;;15.40;9.20;;;;;;;2.15;87.92;98010.45;221298;1281;22575;-78
2023/02/01 19:57:54;;;;;;;15.60;9.40;;;;;;;2.18;87.67;98002.77;222162;1281;22607;-80
2023/02/01 20:02:56;;;;;;;17.00;10.30;;;;;;;2.18;87.93;97990.20;222288;1281;23025;-78
2023/02/01 20:07:58;;;;;;;17.50;10.90;;;;;;;2.19;87.72;97993.24;222151;1280;22886;-78
2023/02/01 20:13:01;;;;;;;16.80;10.00;;;;;;;2.19;87.71;97980.73;222265;1276;22578;-77
2023/02/01 20:18:04;;;;;;;18.20;9.60;;;;;;;2.21;87.84;97969.58;221424;1280;22755;-78
2023/02/01 20:23:07;;;;;;;14.10;8.20;;;;;;;2.25;88.09;97986.71;221278;1279;22642;-77
2023/02/01 20:28:11;;;;;;;19.60;10.50;;;;;;;2.33;87.68;97994.59;221421;1277;22571;-76
2023/02/01 20:33:14;;;;;;;12.00;5.90;;;;;;;2.39;88.06;97998.52;221064;1276;25280;-78
2023/02/01 20:38:17;;;;;;;8.50;4.80;;;;;;;2.38;87.93;97994.21;222457;1276;22550;-77
2023/02/01 20:43:20;;;;;;;8.10;4.80;;;;;;;2.27;87.57;97992.39;221243;1278;22536;-76
2023/02/01 20:48:23;;;;;;;7.30;3.80;;;;;;;2.12;87.39;97977.20;221211;1280;23382;-77
2023/02/01 20:53:26;;;;;;;8.40;4.20;;;;;;;1.96;87.88;97970.83;221222;1280;22783;-77
2023/02/01 20:58:29;;;;;;;6.70;4.10;;;;;;;1.87;88.07;97954.27;221396;1274;25396;-78
2023/02/01 21:03:34;;;;;;;8.20;4.30;;;;;;;1.81;88.48;97946.02;222090;1264;22571;-78
2023/02/01 21:08:40;;;;;;;9.80;5.50;;;;;;;1.78;88.73;97936.20;222021;1278;27309;-77
2023/02/01 21:13:49;;;;;;;11.50;5.90;;;;;;;1.78;88.80;97923.34;221106;1281;22566;-77
2023/02/01 21:18:55;;;;;;;11.20;6.00;;;;;;;1.81;89.08;97917.77;221069;1280;22933;-77
2023/02/01 21:23:58;;;;;;;10.90;5.90;;;;;;;1.82;88.94;97920.92;221596;1279;25325;-78
2023/02/01 21:29:13;;;;;;;11.40;6.60;;;;;;;1.83;89.29;97909.05;222212;1280;22650;-77
2023/02/01 21:34:19;;;;;;;12.70;6.50;;;;;;;1.85;89.64;97910.50;221490;1276;24668;-78
2023/02/01 21:39:22;;;;;;;14.20;6.80;;;;;;;1.90;89.57;97912.36;222385;1269;25380;-77
2023/02/01 21:44:29;;;;;;;10.80;5.60;;;;;;;1.96;89.91;97911.17;221297;1276;22601;-78
2023/02/01 21:49:34;;;;;;;8.50;5.00;;;;;;;2.03;89.99;97910.77;221433;1279;23777;-76
2023/02/01 21:54:43;;;;;;;8.20;4.80;;;;;;;2.08;89.91;97906.58;221568;1280;24343;-77
2023/02/01 21:59:46;;;;;;;6.50;3.80;;;;;;;2.13;89.64;97907.87;221174;1280;25383;-77
2023/02/01 22:04:49;;;;;;;9.00;4.30;;;;;;;2.17;89.70;97909.52;221254;1281;22552;-76
2023/02/01 22:09:56;;;;;;;6.10;3.30;;;;;;;2.21;89.39;97907.59;221250;1281;22554;-77
2023/02/01 22:14:59;;;;;;;6.60;3.30;;;;;;;2.24;89.82;97909.98;221243;1281;22579;-77
2023/02/01 22:20:04;;;;;;;7.00;4.00;;;;;;;2.27;89.50;97914.19;221241;1273;24257;-76
2023/02/01 22:25:08;;;;;;;5.60;3.60;;;;;;;2.31;89.44;97914.66;221217;1278;22650;-76
2023/02/01 22:30:11;;;;;;;6.30;3.60;;;;;;;2.34;89.37;97924.23;221345;1280;25351;-76
2023/02/01 22:35:14;;;;;;;5.00;2.80;;;;;;;2.36;88.98;97928.44;221119;1280;23247;-77
2023/02/01 22:40:17;;;;;;;4.60;2.50;;;;;;;2.39;89.38;97938.68;221360;1280;22540;-76
2023/02/01 22:45:19;;;;;;;2.50;1.40;;;;;;;2.42;89.22;97948.83;221179;1277;22543;-77
2023/02/01 22:50:21;;;;;;;2.90;1.60;;;;;;;2.35;90.86;97957.71;221243;1276;22668;-77
2023/02/01 22:55:24;;;;;;;2.60;1.30;;;;;;;2.23;90.69;97972.15;221238;1281;25462;-77
2023/02/01 23:00:28;;;;;;;3.60;1.40;;;;;;;2.08;89.17;97973.17;221497;1274;24241;-75
2023/02/01 23:05:30;;;;;;;2.90;1.40;;;;;;;1.89;88.81;97967.23;221322;1277;25462;-77
2023/02/01 23:10:38;;;;;;;1.50;0.80;;;;;;;1.74;88.83;97959.20;221344;1276;22550;-76
2023/02/01 23:15:40;;;;;;;1.60;1.00;;;;;;;1.60;88.81;97955.21;221249;1280;22537;-77
2023/02/01 23:20:43;;;;;;;1.90;0.80;;;;;;;1.46;88.83;97965.86;221964;1281;24231;-78
2023/02/01 23:25:50;;;;;;;1.90;1.00;;;;;;;1.35;88.70;97966.02;221018;1280;23006;-77
2023/02/01 23:30:54;;;;;;;2.30;0.90;;;;;;;1.25;89.05;97959.56;221150;1276;22592;-76
2023/02/01 23:35:59;;;;;;;3.10;1.10;;;;;;;1.19;89.44;97961.73;221039;1280;25320;-77
2023/02/01 23:41:04;;;;;;;1.40;0.80;;;;;;;1.15;89.35;97967.02;221275;1275;22660;-77
2023/02/01 23:46:06;;;;;;;1.90;1.00;;;;;;;1.12;89.69;97965.95;221133;1279;22644;-78
2023/02/01 23:51:13;;;;;;;1.90;1.40;;;;;;;1.11;89.95;97962.23;221424;1280;22536;-77
2023/02/01 23:56:24;;;;;;;2.80;1.80;;;;;;;1.10;89.85;97969.05;221531;1280;22578;-78
